createdAt,value
2019-05-18T00:00:25.871Z,3.43
2019-05-18T00:05:33.579Z,3.63
2019-05-18T00:10:38.087Z,4.10
2019-05-18T00:15:41.711Z,3.97
2019-05-18T00:20:49.944Z,3.80
2019-05-18T00:25:58.478Z,3.80
2019-05-18T00:31:07.723Z,3.90
2019-05-18T00:36:14.074Z,4.00
2019-05-18T00:41:19.347Z,4.57
2019-05-18T00:46:24.666Z,5.73
2019-05-18T00:51:34.641Z,5.67
2019-05-18T00:56:38.313Z,5.90
2019-05-18T01:01:41.979Z,5.17
2019-05-18T01:06:45.729Z,5.20
2019-05-18T01:11:50.910Z,6.10
2019-05-18T01:16:56.098Z,5.47
2019-05-18T01:22:01.358Z,5.47
2019-05-18T01:27:08.067Z,5.57
2019-05-18T01:32:13.262Z,5.83
2019-05-18T01:37:16.919Z,5.83
2019-05-18T01:42:23.628Z,6.23
2019-05-18T01:47:27.259Z,6.50
2019-05-18T01:52:32.587Z,7.40
2019-05-18T01:57:37.295Z,6.40
2019-05-18T02:02:44.736Z,7.40
2019-05-18T02:07:48.350Z,7.63
2019-05-18T02:12:51.999Z,7.30
2019-05-18T02:17:55.630Z,7.00
2019-05-18T02:23:03.642Z,6.60
2019-05-18T02:28:07.427Z,6.90
2019-05-18T02:33:16.979Z,6.70
2019-05-18T02:38:20.879Z,7.23
2019-05-18T02:43:30.492Z,6.77
2019-05-18T02:48:48.808Z,7.23
2019-05-18T02:53:43.567Z,6.93
2019-05-18T02:58:51.871Z,7.40
2019-05-18T03:04:01.574Z,7.53
2019-05-18T03:09:09.458Z,7.20
2019-05-18T03:14:13.101Z,8.10
2019-05-18T03:19:16.717Z,7.50
2019-05-18T03:24:20.401Z,8.63
2019-05-18T03:29:24.032Z,7.80
2019-05-18T03:34:27.761Z,7.67
2019-05-18T03:39:31.458Z,7.60
2019-05-18T03:44:35.073Z,7.47
2019-05-18T03:49:38.701Z,7.13
2019-05-18T03:54:42.353Z,6.90
2019-05-18T03:59:45.996Z,6.10
2019-05-18T04:04:49.624Z,6.87
2019-05-18T04:09:53.266Z,6.60
2019-05-18T04:14:56.884Z,7.07
2019-05-18T04:20:00.500Z,7.90
2019-05-18T04:25:05.157Z,8.50
2019-05-18T04:30:09.420Z,7.73
2019-05-18T04:35:13.267Z,7.67
2019-05-18T04:40:17.422Z,8.60
2019-05-18T04:45:21.040Z,8.43
2019-05-18T04:50:24.735Z,8.57
2019-05-18T04:55:28.387Z,8.80
2019-05-18T05:00:32.265Z,9.13
2019-05-18T05:05:35.865Z,8.87
2019-05-18T05:10:39.479Z,9.03
2019-05-18T05:15:43.095Z,9.23
2019-05-18T05:20:46.718Z,9.27
2019-05-18T05:25:50.345Z,9.40
2019-05-18T05:30:54.033Z,9.33
2019-05-18T05:35:57.787Z,9.07
2019-05-18T05:41:02.364Z,10.20
2019-05-18T05:46:07.079Z,10.40
2019-05-18T05:51:10.768Z,9.10
2019-05-18T05:56:14.449Z,10.70
2019-05-18T06:01:18.075Z,10.43
2019-05-18T06:06:23.150Z,10.77
2019-05-18T06:11:27.092Z,9.50
2019-05-18T06:16:30.788Z,10.10
2019-05-18T06:21:34.406Z,11.33
2019-05-18T06:26:38.032Z,10.27
2019-05-18T06:31:41.733Z,10.93
2019-05-18T06:36:45.439Z,10.43
2019-05-18T06:41:49.050Z,11.30
2019-05-18T06:46:52.699Z,11.23
2019-05-18T06:51:56.455Z,10.40
2019-05-18T06:57:01.528Z,10.80
2019-05-18T07:02:05.500Z,10.60
2019-05-18T07:07:09.143Z,10.13
2019-05-18T07:12:12.787Z,10.20
2019-05-18T07:17:16.425Z,10.27
2019-05-18T07:22:20.057Z,9.57
2019-05-18T07:27:23.687Z,9.20
2019-05-18T07:32:27.377Z,9.27
2019-05-18T07:37:31.032Z,8.53
2019-05-18T07:42:34.702Z,9.00
2019-05-18T07:47:38.342Z,8.50
2019-05-18T07:52:41.953Z,8.90
2019-05-18T07:57:45.575Z,8.90
2019-05-18T08:02:49.328Z,8.70
2019-05-18T08:07:52.943Z,9.23
2019-05-18T08:12:56.626Z,8.33
2019-05-18T08:18:00.338Z,8.97
2019-05-18T08:23:03.971Z,9.23
2019-05-18T08:28:07.804Z,9.73
2019-05-18T08:33:11.383Z,9.27
2019-05-18T08:38:15.085Z,8.70
2019-05-18T08:43:18.697Z,8.90
2019-05-18T08:48:22.394Z,7.67
2019-05-18T08:53:26.011Z,7.77
2019-05-18T08:58:29.718Z,9.20
2019-05-18T09:03:33.383Z,8.53
2019-05-18T09:08:37.024Z,9.27
2019-05-18T09:13:40.623Z,8.93
2019-05-18T09:18:44.258Z,8.60
2019-05-18T09:23:47.886Z,7.50
2019-05-18T09:28:51.507Z,7.37
2019-05-18T09:33:55.186Z,7.93
2019-05-18T09:38:58.926Z,8.27
2019-05-18T09:44:02.595Z,7.90
2019-05-18T09:49:06.459Z,7.53
2019-05-18T09:54:10.090Z,11.57
2019-05-18T09:59:13.721Z,7.27
2019-05-18T10:04:18.014Z,6.43
2019-05-18T10:09:21.717Z,5.70
2019-05-18T10:14:25.326Z,5.03
2019-05-18T10:19:28.937Z,6.63
2019-05-18T10:24:32.584Z,5.90
2019-05-18T10:29:36.193Z,6.30
2019-05-18T10:34:39.871Z,5.50
2019-05-18T10:39:51.422Z,6.07
2019-05-18T10:44:55.043Z,5.97
2019-05-18T10:49:58.659Z,6.50
2019-05-18T10:55:02.293Z,6.00
2019-05-18T11:00:11.468Z,6.30
2019-05-18T11:05:15.826Z,6.57
2019-05-18T11:10:21.394Z,6.40
2019-05-18T11:15:25.326Z,6.10
2019-05-18T11:20:29.012Z,7.50
2019-05-18T11:25:32.694Z,6.80
2019-05-18T11:30:36.481Z,5.77
2019-05-18T11:35:40.236Z,5.70
2019-05-18T11:40:43.891Z,5.40
2019-05-18T11:45:47.651Z,6.33
2019-05-18T11:50:51.304Z,5.90
2019-05-18T11:55:54.947Z,5.83
2019-05-18T12:00:58.704Z,4.63
2019-05-18T12:06:02.354Z,4.90
2019-05-18T12:11:05.974Z,5.40
2019-05-18T12:16:09.669Z,4.40
2019-05-18T12:21:13.296Z,4.50
2019-05-18T12:26:16.991Z,4.17
2019-05-18T12:31:20.613Z,5.33
2019-05-18T12:36:24.264Z,4.43
2019-05-18T12:41:29.506Z,5.70
2019-05-18T12:46:33.162Z,5.17
2019-05-18T12:51:36.768Z,6.63
2019-05-18T12:56:40.468Z,5.37
2019-05-18T13:01:44.155Z,5.60
2019-05-18T13:06:47.775Z,5.00
2019-05-18T13:11:51.454Z,5.57
2019-05-18T13:16:55.091Z,5.40
2019-05-18T13:21:58.723Z,4.80
2019-05-18T13:27:02.338Z,5.27
2019-05-18T13:32:06.103Z,5.43
2019-05-18T13:37:09.710Z,4.83
2019-05-18T13:42:13.531Z,5.30
2019-05-18T13:47:17.158Z,5.27
2019-05-18T13:52:20.806Z,6.00
2019-05-18T13:57:24.429Z,5.40
2019-05-18T14:02:28.129Z,5.00
2019-05-18T14:07:31.876Z,4.80
2019-05-18T14:12:35.678Z,14.93
2019-05-18T14:17:39.360Z,6.77
2019-05-18T14:22:43.080Z,3.80
2019-05-18T14:27:46.710Z,4.03
2019-05-18T14:32:50.472Z,3.83
2019-05-18T14:37:54.382Z,2.73
2019-05-18T14:42:58.009Z,2.70
2019-05-18T14:48:01.634Z,2.53
2019-05-18T14:53:05.396Z,2.60
2019-05-18T14:58:09.020Z,2.50
2019-05-18T15:03:12.711Z,3.37
2019-05-18T15:08:16.427Z,5.77
2019-05-18T15:13:20.061Z,4.43
2019-05-18T15:18:23.709Z,8.83
2019-05-18T15:23:27.315Z,4.90
2019-05-18T15:28:30.932Z,3.73
2019-05-18T15:33:34.689Z,3.20
2019-05-18T15:38:38.336Z,3.77
2019-05-18T15:43:41.961Z,3.00
2019-05-18T15:48:45.763Z,2.90
2019-05-18T15:53:49.521Z,3.03
2019-05-18T15:58:53.226Z,3.60
2019-05-18T16:03:57.278Z,3.40
2019-05-18T16:09:00.892Z,5.20
2019-05-18T16:14:04.670Z,7.13
2019-05-18T16:19:08.394Z,6.70
2019-05-18T16:24:12.014Z,3.80
2019-05-18T16:29:15.691Z,3.80
2019-05-18T16:34:19.626Z,3.60
2019-05-18T16:39:23.303Z,2.90
2019-05-18T16:44:26.910Z,4.50
2019-05-18T16:49:30.543Z,3.40
2019-05-18T16:54:34.220Z,3.57
2019-05-18T16:59:37.837Z,6.90
2019-05-18T17:04:41.669Z,3.73
2019-05-18T17:09:45.290Z,3.60
2019-05-18T17:14:48.909Z,2.93
2019-05-18T17:19:52.609Z,3.63
2019-05-18T17:24:56.283Z,3.80
2019-05-18T17:29:59.979Z,3.10
2019-05-18T17:35:05.832Z,4.03
2019-05-18T17:40:09.805Z,3.93
2019-05-18T17:45:13.784Z,4.53
2019-05-18T17:50:17.653Z,3.40
2019-05-18T17:55:23.210Z,3.10
2019-05-18T18:00:26.958Z,7.20
2019-05-18T18:05:30.570Z,7.50
2019-05-18T18:10:34.198Z,4.07
2019-05-18T18:15:37.928Z,5.03
2019-05-18T18:20:41.766Z,4.57
2019-05-18T18:25:45.419Z,5.43
2019-05-18T18:30:49.312Z,3.77
2019-05-18T18:35:52.916Z,2.70
2019-05-18T18:40:56.543Z,2.70
2019-05-18T18:46:00.886Z,3.20
2019-05-18T18:57:08.058Z,3.40
2019-05-18T19:02:11.746Z,4.27
2019-05-18T19:07:15.567Z,3.53
2019-05-18T19:12:19.212Z,5.37
2019-05-18T19:17:22.823Z,4.10
2019-05-18T19:22:26.435Z,4.40
2019-05-18T19:27:30.099Z,3.73
2019-05-18T19:32:33.767Z,3.40
2019-05-18T19:37:38.157Z,5.63
2019-05-18T19:42:41.758Z,8.50
2019-05-18T19:47:45.360Z,10.37
2019-05-18T19:52:48.961Z,6.30
2019-05-18T19:57:52.616Z,11.50
2019-05-18T20:02:56.375Z,10.80
2019-05-18T20:08:00.032Z,6.73
2019-05-18T20:13:03.615Z,5.27
2019-05-18T20:18:07.239Z,4.90
2019-05-18T20:23:10.969Z,4.20
2019-05-18T20:28:23.258Z,4.70
2019-05-18T20:33:19.983Z,4.77
2019-05-18T20:38:23.581Z,4.53
2019-05-18T20:43:27.231Z,5.30
2019-05-18T20:48:30.828Z,8.60
2019-05-18T20:53:34.503Z,5.87
2019-05-18T20:58:40.581Z,9.13
2019-05-18T21:03:43.522Z,4.77
2019-05-18T21:08:47.161Z,3.70
2019-05-18T21:13:52.310Z,3.33
2019-05-18T21:18:57.035Z,3.27
2019-05-18T21:24:00.935Z,2.87
2019-05-18T21:29:09.588Z,3.93
2019-05-18T21:34:12.945Z,3.83
2019-05-18T21:39:16.605Z,4.30
2019-05-18T21:44:20.294Z,4.37
2019-05-18T21:49:23.914Z,4.30
2019-05-18T21:54:27.885Z,4.40
2019-05-18T21:59:31.503Z,5.43
2019-05-18T22:04:35.195Z,7.07
2019-05-18T22:09:39.302Z,5.60
2019-05-18T22:14:42.880Z,7.80
2019-05-18T22:19:46.507Z,5.97
2019-05-18T22:24:56.889Z,5.20
2019-05-18T22:29:58.138Z,5.60
2019-05-18T22:35:07.887Z,5.07
2019-05-18T22:40:12.307Z,5.30
2019-05-18T22:45:16.449Z,4.93
2019-05-18T22:50:20.798Z,5.00
2019-05-18T22:55:26.036Z,8.53
2019-05-18T23:00:32.565Z,8.33
2019-05-18T23:05:39.092Z,6.13
2019-05-18T23:10:42.764Z,5.23
2019-05-18T23:15:49.538Z,5.43
2019-05-18T23:20:56.155Z,5.50
2019-05-18T23:26:01.477Z,5.67
2019-05-18T23:31:08.053Z,6.70
2019-05-18T23:36:12.794Z,6.17
2019-05-18T23:41:17.365Z,7.13
2019-05-18T23:46:24.018Z,6.87
2019-05-18T23:51:30.546Z,7.73
2019-05-18T23:56:41.476Z,9.30
